Greenway, Minnesota
Current Conditions -  °F | °C
As of 2:35 AM on Sunday 21 Dec 2014 (Local Time) from KGPZ Reporting Station
Overcast Overcast  
Wind Chill: 16°   Ceiling: 300
Heat Index: 27°   Visibility: 3mi
Dew Point: 27°   Wind: 13mph
Humidity: 100%   Direction: 160°SSE
Pressure: 29.92"   Gusts: 21mph
Location:  47.3198°N, 93.3089°W
Report Text: KGPZ 210835Z AUTO 16011G18KT 3SM OVC003 M03/M03 A2992 RMK AO1
Loading
Personal Weather Stations






























Interactive Weather Map New forecast layout! Learn more

10-Day Weather Forecast

Advertisements
Track Severe Weather on mobile